createdAt,value
2018-10-07T00:00:11.455Z,99.9
2018-10-07T00:01:11.390Z,99.9
2018-10-07T00:02:11.294Z,99.9
2018-10-07T00:03:11.194Z,99.9
2018-10-07T00:04:11.104Z,99.9
2018-10-07T00:15:09.347Z,99.9
2018-10-07T00:16:09.263Z,99.9
2018-10-07T00:17:09.190Z,99.9
2018-10-07T00:18:09.131Z,99.9
2018-10-07T00:19:09.035Z,99.9
2018-10-07T00:20:08.935Z,99.9
2018-10-07T00:21:08.832Z,99.9
2018-10-07T00:22:08.732Z,99.9
2018-10-07T00:23:08.643Z,99.9
2018-10-07T00:24:08.593Z,99.9
2018-10-07T00:25:08.940Z,99.9
2018-10-07T00:26:08.842Z,99.9
2018-10-07T00:27:08.757Z,99.9
2018-10-07T00:28:08.665Z,99.9
2018-10-07T00:29:08.568Z,99.9
2018-10-07T00:30:08.507Z,99.9
2018-10-07T00:31:08.521Z,99.9
2018-10-07T00:32:08.435Z,99.9
2018-10-07T00:33:08.352Z,99.9
2018-10-07T00:34:08.260Z,99.9
2018-10-07T00:35:08.642Z,99.9
2018-10-07T00:36:08.539Z,99.9
2018-10-07T00:37:08.445Z,99.9
2018-10-07T00:38:08.343Z,99.9
2018-10-07T00:39:08.259Z,99.9
2018-10-07T00:40:08.168Z,99.9
2018-10-07T00:41:08.110Z,99.9
2018-10-07T00:42:08.047Z,99.9
2018-10-07T00:43:07.953Z,99.9
2018-10-07T00:44:07.871Z,99.9
2018-10-07T00:55:06.115Z,99.9
2018-10-07T00:56:06.010Z,99.9
2018-10-07T00:57:05.907Z,99.9
2018-10-07T00:58:05.837Z,99.9
2018-10-07T00:59:05.785Z,99.9
2018-10-07T01:00:05.693Z,99.9
2018-10-07T01:01:05.601Z,99.9
2018-10-07T01:02:05.521Z,99.9
2018-10-07T01:03:05.429Z,99.9
2018-10-07T01:04:05.351Z,99.9
2018-10-07T01:05:05.733Z,99.9
2018-10-07T01:06:05.645Z,99.9
2018-10-07T01:07:05.546Z,99.9
2018-10-07T01:08:05.450Z,99.9
2018-10-07T01:09:05.359Z,99.9
2018-10-07T01:10:05.274Z,99.9
2018-10-07T01:11:05.170Z,99.9
2018-10-07T01:12:05.080Z,99.9
2018-10-07T01:13:04.984Z,99.9
2018-10-07T01:14:04.888Z,99.9
2018-10-07T01:15:05.270Z,99.9
2018-10-07T01:16:05.194Z,99.9
2018-10-07T01:17:05.118Z,99.9
2018-10-07T01:18:05.039Z,99.9
2018-10-07T01:19:04.941Z,99.9
2018-10-07T01:20:04.857Z,99.9
2018-10-07T01:21:04.801Z,99.9
2018-10-07T01:22:04.723Z,99.9
2018-10-07T01:23:04.624Z,99.9
2018-10-07T01:24:04.526Z,99.9
2018-10-07T01:25:04.893Z,99.9
2018-10-07T01:26:04.802Z,99.9
2018-10-07T01:27:04.723Z,99.9
2018-10-07T01:28:04.639Z,99.9
2018-10-07T01:29:04.539Z,99.9
2018-10-07T01:30:04.430Z,99.9
2018-10-07T01:31:04.356Z,99.9
2018-10-07T01:32:04.296Z,99.9
2018-10-07T01:33:04.207Z,99.9
2018-10-07T01:34:04.112Z,99.9
2018-10-07T01:35:04.465Z,99.9
2018-10-07T01:36:04.435Z,99.9
2018-10-07T01:37:04.353Z,99.9
2018-10-07T01:38:04.285Z,99.9
2018-10-07T01:39:04.195Z,99.9
2018-10-07T01:40:04.103Z,99.9
2018-10-07T01:41:04.007Z,99.9
2018-10-07T01:42:03.913Z,99.9
2018-10-07T01:43:03.821Z,99.9
2018-10-07T01:44:03.762Z,99.9
2018-10-07T01:45:04.104Z,99.9
2018-10-07T01:46:04.023Z,99.9
2018-10-07T01:47:03.928Z,99.9
2018-10-07T01:48:03.849Z,99.9
2018-10-07T01:49:03.762Z,99.9
2018-10-07T01:50:03.666Z,99.9
2018-10-07T01:51:03.572Z,99.9
2018-10-07T01:52:03.480Z,99.9
2018-10-07T01:53:03.382Z,99.9
2018-10-07T01:54:03.293Z,99.9
2018-10-07T02:05:01.943Z,99.9
2018-10-07T02:06:02.190Z,99.9
2018-10-07T02:07:02.103Z,99.9
2018-10-07T02:08:02.033Z,99.9
2018-10-07T02:09:01.942Z,99.9
2018-10-07T02:10:01.849Z,99.9
2018-10-07T02:11:01.780Z,99.9
2018-10-07T02:12:01.706Z,99.9
2018-10-07T02:13:01.615Z,99.9
2018-10-07T02:14:02.233Z,99.9
2018-10-07T02:25:00.876Z,99.9
2018-10-07T02:26:00.769Z,99.9
2018-10-07T02:27:00.724Z,99.9
2018-10-07T02:28:00.631Z,99.9
2018-10-07T02:29:00.551Z,99.9
2018-10-07T02:30:00.459Z,99.9
2018-10-07T02:31:00.364Z,99.9
2018-10-07T02:32:00.266Z,99.9
2018-10-07T02:33:00.206Z,99.9
2018-10-07T02:34:00.153Z,99.9
2018-10-07T02:35:00.491Z,99.9
2018-10-07T02:36:00.400Z,99.9
2018-10-07T02:37:00.326Z,99.9
2018-10-07T02:38:00.240Z,99.9
2018-10-07T02:39:00.161Z,99.9
2018-10-07T02:40:00.076Z,99.9
2018-10-07T02:40:59.994Z,99.9
2018-10-07T02:41:59.893Z,99.9
2018-10-07T02:42:59.790Z,99.9
2018-10-07T02:43:59.706Z,99.9
2018-10-07T02:45:00.104Z,99.9
2018-10-07T02:46:00.040Z,99.9
2018-10-07T02:46:59.953Z,99.9
2018-10-07T02:47:59.863Z,99.9
2018-10-07T02:48:59.773Z,99.9
2018-10-07T02:49:59.683Z,99.9
2018-10-07T02:50:59.590Z,99.9
2018-10-07T02:51:59.528Z,99.9
2018-10-07T02:52:59.499Z,99.9
2018-10-07T02:53:59.404Z,99.9
2018-10-07T03:04:57.763Z,99.9
2018-10-07T03:05:57.675Z,99.9
2018-10-07T03:06:57.582Z,99.9
2018-10-07T03:07:57.485Z,99.9
2018-10-07T03:08:57.422Z,99.9
2018-10-07T03:09:57.317Z,99.9
2018-10-07T03:10:57.281Z,99.9
2018-10-07T03:11:57.186Z,99.9
2018-10-07T03:12:57.106Z,99.9
2018-10-07T03:13:57.043Z,99.9
2018-10-07T03:14:57.398Z,99.9
2018-10-07T03:15:57.290Z,99.9
2018-10-07T03:16:57.197Z,99.9
2018-10-07T03:17:57.114Z,99.9
2018-10-07T03:18:57.028Z,99.9
2018-10-07T03:19:56.950Z,99.9
2018-10-07T03:20:56.865Z,99.9
2018-10-07T03:21:56.780Z,99.9
2018-10-07T03:22:56.693Z,99.9
2018-10-07T03:23:56.607Z,99.9
2018-10-07T03:24:56.954Z,99.9
2018-10-07T03:25:56.882Z,99.9
2018-10-07T03:26:56.775Z,99.9
2018-10-07T03:27:56.666Z,99.9
2018-10-07T03:28:56.588Z,99.9
2018-10-07T03:29:56.510Z,99.9
2018-10-07T03:30:56.454Z,99.9
2018-10-07T03:31:56.388Z,99.9
2018-10-07T03:32:56.316Z,99.9
2018-10-07T03:33:56.220Z,99.9
2018-10-07T03:34:56.806Z,99.9
2018-10-07T03:35:56.847Z,99.9
2018-10-07T03:36:56.782Z,99.9
2018-10-07T03:37:56.684Z,99.9
2018-10-07T03:38:56.622Z,99.9
2018-10-07T03:39:56.554Z,99.9
2018-10-07T03:40:56.469Z,99.9
2018-10-07T03:41:56.378Z,99.9
2018-10-07T03:42:56.314Z,99.9
2018-10-07T03:43:56.234Z,99.9
2018-10-07T03:44:56.585Z,99.9
2018-10-07T03:45:56.487Z,99.9
2018-10-07T03:46:56.382Z,99.9
2018-10-07T03:47:56.297Z,99.9
2018-10-07T03:48:56.238Z,99.9
2018-10-07T03:49:56.150Z,99.9
2018-10-07T03:50:56.087Z,99.9
2018-10-07T03:51:55.995Z,99.9
2018-10-07T03:52:55.915Z,99.9
2018-10-07T03:53:55.858Z,99.9
2018-10-07T03:54:56.240Z,99.9
2018-10-07T03:55:56.163Z,99.9
2018-10-07T03:56:56.078Z,99.9
2018-10-07T03:57:55.990Z,99.9
2018-10-07T03:58:55.898Z,99.9
2018-10-07T03:59:55.825Z,99.9
2018-10-07T04:00:55.717Z,99.9
2018-10-07T04:01:55.626Z,99.9
2018-10-07T04:02:55.539Z,99.9
2018-10-07T04:03:55.444Z,99.9
2018-10-07T04:04:55.788Z,99.9
2018-10-07T04:05:55.729Z,99.9
2018-10-07T04:06:55.641Z,99.9
2018-10-07T04:07:55.562Z,99.9
2018-10-07T04:08:55.475Z,99.9
2018-10-07T04:09:55.390Z,99.9
2018-10-07T04:10:55.305Z,99.9
2018-10-07T04:11:55.244Z,99.9
2018-10-07T04:12:55.147Z,99.9
2018-10-07T04:13:55.054Z,99.9
2018-10-07T04:24:53.395Z,99.9
2018-10-07T04:25:53.313Z,99.9
2018-10-07T04:26:53.213Z,99.9
2018-10-07T04:27:53.150Z,99.9
2018-10-07T04:28:53.063Z,99.9
2018-10-07T04:29:52.985Z,99.9
2018-10-07T04:30:52.884Z,99.9
2018-10-07T04:31:52.789Z,99.9
2018-10-07T04:32:52.726Z,99.9
2018-10-07T04:33:52.646Z,99.9
2018-10-07T04:34:53.020Z,99.9
2018-10-07T04:35:52.923Z,99.9
2018-10-07T04:36:52.840Z,99.9
2018-10-07T04:37:52.752Z,99.9
2018-10-07T04:38:52.679Z,99.9
2018-10-07T04:39:53.005Z,99.9
2018-10-07T04:40:53.152Z,99.9
2018-10-07T04:41:53.083Z,99.9
2018-10-07T04:42:53.001Z,99.9
2018-10-07T04:43:52.909Z,99.9
2018-10-07T04:54:51.154Z,99.9
2018-10-07T04:55:51.082Z,99.9
2018-10-07T04:56:50.994Z,99.9
2018-10-07T04:57:50.901Z,99.9
2018-10-07T04:58:50.807Z,99.9
2018-10-07T04:59:50.706Z,99.9
2018-10-07T05:00:50.633Z,99.9
2018-10-07T05:01:50.552Z,99.9
2018-10-07T05:02:50.469Z,99.9
2018-10-07T05:03:50.376Z,99.9
2018-10-07T05:04:50.736Z,99.9
2018-10-07T05:05:50.637Z,99.9
2018-10-07T05:06:50.576Z,99.9
2018-10-07T05:07:50.492Z,99.9
2018-10-07T05:08:50.404Z,99.9
2018-10-07T05:09:50.312Z,99.9
2018-10-07T05:10:50.231Z,99.9
2018-10-07T05:11:50.149Z,99.9
2018-10-07T05:12:50.094Z,99.9
2018-10-07T05:13:50.003Z,99.9
2018-10-07T05:14:50.341Z,99.9
2018-10-07T05:15:50.252Z,99.9
2018-10-07T05:16:50.194Z,99.9
2018-10-07T05:17:50.135Z,99.9
2018-10-07T05:18:50.045Z,99.9
2018-10-07T05:19:49.947Z,99.9
2018-10-07T05:20:50.169Z,99.9
2018-10-07T05:21:50.350Z,99.9
2018-10-07T05:22:50.263Z,99.9
2018-10-07T05:23:50.186Z,99.9
2018-10-07T05:24:50.542Z,99.9
2018-10-07T05:25:50.447Z,99.9
2018-10-07T05:26:50.381Z,99.9
2018-10-07T05:27:50.303Z,99.9
2018-10-07T05:28:50.237Z,99.9
2018-10-07T05:29:50.138Z,99.9
2018-10-07T05:30:50.049Z,99.9
2018-10-07T05:31:49.971Z,99.9
2018-10-07T05:32:49.883Z,99.9
2018-10-07T05:33:49.788Z,99.9
2018-10-07T05:34:50.203Z,99.9
2018-10-07T05:35:50.109Z,99.9
2018-10-07T05:36:50.013Z,99.9
2018-10-07T05:37:49.934Z,99.9
2018-10-07T05:38:49.834Z,99.9
2018-10-07T05:39:49.774Z,99.9
2018-10-07T05:40:49.690Z,99.9
2018-10-07T05:41:49.620Z,99.9
2018-10-07T05:42:49.533Z,99.9
2018-10-07T05:43:49.437Z,99.9
2018-10-07T05:54:48.590Z,99.9
2018-10-07T05:55:49.109Z,99.9
2018-10-07T05:56:49.472Z,99.9
2018-10-07T05:57:49.381Z,99.9
2018-10-07T05:58:49.288Z,99.9
2018-10-07T05:59:49.188Z,99.9
2018-10-07T06:00:49.145Z,99.9
2018-10-07T06:01:49.608Z,99.9
2018-10-07T06:02:49.931Z,99.9
2018-10-07T06:03:49.831Z,99.9
2018-10-07T06:04:50.207Z,99.9
2018-10-07T06:05:50.102Z,99.9
2018-10-07T06:06:50.028Z,99.9
2018-10-07T06:07:49.956Z,99.9
2018-10-07T06:08:49.877Z,99.9
2018-10-07T06:09:49.787Z,99.9
2018-10-07T06:10:49.705Z,99.9
2018-10-07T06:11:49.621Z,99.9
2018-10-07T06:12:49.551Z,99.9
2018-10-07T06:13:49.496Z,99.9
2018-10-07T06:14:50.157Z,99.9
2018-10-07T06:15:50.411Z,99.9
2018-10-07T06:16:50.322Z,99.9
2018-10-07T06:17:50.226Z,99.9
2018-10-07T06:18:50.136Z,99.9
2018-10-07T06:19:50.059Z,99.9
2018-10-07T06:20:49.965Z,99.9
2018-10-07T06:21:49.872Z,99.9
2018-10-07T06:22:49.807Z,99.9
2018-10-07T06:23:49.734Z,99.9
2018-10-07T06:24:50.098Z,99.9
2018-10-07T06:25:50.011Z,99.9
2018-10-07T06:26:49.937Z,99.9
2018-10-07T06:27:49.841Z,99.9
2018-10-07T06:28:49.774Z,99.9
2018-10-07T06:29:50.004Z,99.9
2018-10-07T06:30:50.183Z,99.9
2018-10-07T06:31:50.080Z,99.9
2018-10-07T06:32:49.996Z,99.9
2018-10-07T06:33:52.669Z,99.9
2018-10-07T06:34:53.033Z,99.9
2018-10-07T06:35:52.951Z,99.9
2018-10-07T06:36:52.860Z,99.9
2018-10-07T06:37:52.772Z,99.9
2018-10-07T06:38:52.683Z,99.9
2018-10-07T06:39:52.904Z,99.9
2018-10-07T06:40:53.064Z,99.9
2018-10-07T06:41:53.003Z,99.9
2018-10-07T06:42:52.940Z,99.9
2018-10-07T06:43:52.864Z,99.9
2018-10-07T06:44:53.288Z,99.9
2018-10-07T06:45:53.536Z,99.9
2018-10-07T06:46:53.719Z,99.9
2018-10-07T06:47:53.634Z,99.9
2018-10-07T06:48:53.586Z,99.9
2018-10-07T06:49:53.505Z,99.9
2018-10-07T06:50:53.440Z,99.9
2018-10-07T06:51:53.341Z,99.9
2018-10-07T06:52:53.240Z,99.9
2018-10-07T06:53:53.180Z,99.9
2018-10-07T07:04:51.406Z,99.9
2018-10-07T07:05:51.315Z,99.9
2018-10-07T07:06:51.218Z,99.9
2018-10-07T07:07:51.154Z,99.9
2018-10-07T07:08:51.071Z,99.9
2018-10-07T07:09:50.996Z,99.9
2018-10-07T07:10:50.920Z,99.9
2018-10-07T07:11:50.830Z,99.9
2018-10-07T07:12:50.990Z,99.9
2018-10-07T07:13:50.967Z,99.9
2018-10-07T07:24:49.667Z,99.9
2018-10-07T07:25:49.575Z,99.9
2018-10-07T07:26:49.485Z,99.9
2018-10-07T07:27:49.402Z,99.9
2018-10-07T07:28:49.309Z,99.9
2018-10-07T07:29:49.215Z,99.9
2018-10-07T07:30:49.203Z,99.9
2018-10-07T07:31:49.114Z,99.9
2018-10-07T07:32:49.016Z,99.9
2018-10-07T07:33:48.924Z,99.9
2018-10-07T07:34:49.342Z,99.9
2018-10-07T07:35:49.260Z,99.9
2018-10-07T07:36:49.457Z,99.9
2018-10-07T07:37:49.606Z,99.9
2018-10-07T07:38:49.550Z,99.9
2018-10-07T07:39:49.455Z,99.9
2018-10-07T07:40:49.370Z,99.9
2018-10-07T07:41:49.336Z,99.9
2018-10-07T07:42:49.259Z,99.9
2018-10-07T07:43:49.179Z,99.9
2018-10-07T07:54:47.424Z,99.9
2018-10-07T07:55:47.341Z,99.9
2018-10-07T07:56:47.255Z,99.9
2018-10-07T07:57:47.171Z,99.9
2018-10-07T07:58:47.086Z,99.9
2018-10-07T07:59:47.018Z,99.9
2018-10-07T08:00:46.930Z,99.9
2018-10-07T08:01:46.835Z,99.9
2018-10-07T08:02:51.658Z,99.9
2018-10-07T08:03:51.565Z,99.9
2018-10-07T08:04:51.950Z,99.9
2018-10-07T08:05:51.892Z,99.9
2018-10-07T08:06:51.803Z,99.9
2018-10-07T08:07:51.717Z,99.9
2018-10-07T08:08:52.156Z,99.9
2018-10-07T08:09:52.477Z,99.9
2018-10-07T08:10:52.393Z,99.9
2018-10-07T08:11:52.309Z,99.9
2018-10-07T08:12:52.221Z,99.9
2018-10-07T08:13:52.130Z,99.9
2018-10-07T08:14:52.507Z,99.9
2018-10-07T08:15:52.452Z,99.9
2018-10-07T08:16:52.372Z,99.9
2018-10-07T08:17:52.640Z,99.9
2018-10-07T08:18:52.875Z,99.9
2018-10-07T08:19:52.771Z,99.9
2018-10-07T08:20:52.695Z,99.9
2018-10-07T08:21:52.634Z,99.9
2018-10-07T08:22:52.546Z,99.9
2018-10-07T08:23:52.980Z,99.9
2018-10-07T08:24:53.740Z,99.9
2018-10-07T08:25:53.646Z,99.9
2018-10-07T08:26:53.596Z,99.9
2018-10-07T08:27:53.510Z,99.9
2018-10-07T08:28:53.414Z,99.9
2018-10-07T08:29:53.330Z,99.9
2018-10-07T08:30:53.229Z,99.9
2018-10-07T08:31:53.136Z,99.9
2018-10-07T08:32:53.070Z,99.9
2018-10-07T08:33:52.983Z,99.9
2018-10-07T08:34:53.318Z,99.9
2018-10-07T08:35:53.237Z,99.9
2018-10-07T08:36:53.142Z,99.9
2018-10-07T08:37:53.046Z,99.9
2018-10-07T08:38:52.983Z,99.9
2018-10-07T08:39:52.904Z,99.9
2018-10-07T08:40:52.810Z,99.9
2018-10-07T08:41:52.718Z,99.9
2018-10-07T08:42:52.621Z,99.9
2018-10-07T08:43:52.540Z,99.9
2018-10-07T08:44:52.918Z,99.9
2018-10-07T08:45:52.819Z,99.9
2018-10-07T08:46:52.739Z,99.9
2018-10-07T08:47:52.665Z,99.9
2018-10-07T08:48:53.611Z,99.9
2018-10-07T08:49:54.306Z,99.9
2018-10-07T08:50:54.665Z,99.9
2018-10-07T08:51:54.571Z,99.9
2018-10-07T08:52:54.495Z,99.9
2018-10-07T08:53:54.408Z,99.9
2018-10-07T08:54:54.792Z,99.9
2018-10-07T08:55:54.830Z,99.9
2018-10-07T08:56:54.826Z,99.9
2018-10-07T08:57:54.732Z,99.9
2018-10-07T08:58:54.634Z,99.9
2018-10-07T08:59:54.567Z,99.9
2018-10-07T09:00:54.490Z,99.9
2018-10-07T09:01:54.583Z,99.9
2018-10-07T09:02:54.697Z,99.9
2018-10-07T09:03:54.619Z,99.9
2018-10-07T09:04:54.986Z,99.9
2018-10-07T09:05:54.921Z,99.9
2018-10-07T09:06:54.844Z,99.9
2018-10-07T09:07:54.767Z,99.9
2018-10-07T09:08:55.251Z,99.9
2018-10-07T09:09:55.544Z,99.9
2018-10-07T09:10:55.520Z,99.9
2018-10-07T09:11:55.458Z,99.9
2018-10-07T09:12:55.376Z,99.9
2018-10-07T09:13:55.288Z,99.9
2018-10-07T09:14:55.657Z,99.9
2018-10-07T09:15:55.799Z,99.9
2018-10-07T09:16:55.731Z,99.9
2018-10-07T09:17:55.648Z,99.9
2018-10-07T09:18:55.558Z,99.9
2018-10-07T09:19:55.473Z,99.9
2018-10-07T09:20:55.643Z,99.9
2018-10-07T09:21:55.768Z,99.9
2018-10-07T09:22:55.717Z,99.9
2018-10-07T09:23:55.630Z,99.9
2018-10-07T09:24:56.012Z,99.9
2018-10-07T09:25:55.939Z,99.9
2018-10-07T09:26:56.180Z,99.9
2018-10-07T09:27:56.646Z,99.9
2018-10-07T09:28:56.808Z,99.9
2018-10-07T09:29:56.761Z,99.9
2018-10-07T09:30:56.685Z,99.9
2018-10-07T09:31:56.843Z,99.9
2018-10-07T09:32:57.347Z,99.9
2018-10-07T09:33:57.637Z,99.9
2018-10-07T09:34:58.667Z,99.9
2018-10-07T09:35:58.569Z,99.9
2018-10-07T09:36:58.510Z,99.9
2018-10-07T09:37:58.459Z,99.9
2018-10-07T09:38:58.371Z,99.9
2018-10-07T09:39:58.510Z,99.9
2018-10-07T09:40:58.450Z,99.9
2018-10-07T09:41:58.355Z,99.9
2018-10-07T09:42:58.528Z,99.9
2018-10-07T09:43:58.460Z,99.9
2018-10-07T10:04:56.479Z,99.9
2018-10-07T10:05:57.076Z,99.9
2018-10-07T10:06:57.117Z,99.9
2018-10-07T10:07:57.125Z,99.9
2018-10-07T10:08:57.044Z,99.9
2018-10-07T10:09:57.196Z,99.9
2018-10-07T10:10:57.397Z,99.9
2018-10-07T10:11:57.399Z,99.4
2018-10-07T10:12:57.315Z,99.3
2018-10-07T10:13:57.241Z,99.9
2018-10-07T10:14:57.580Z,99.9
2018-10-07T10:24:55.992Z,97.8
2018-10-07T10:25:55.895Z,98
2018-10-07T10:26:55.804Z,98.1
2018-10-07T10:27:55.927Z,97.4
2018-10-07T10:28:55.860Z,97.1
2018-10-07T10:29:55.770Z,97.5
2018-10-07T10:30:55.692Z,98
2018-10-07T10:31:55.839Z,98.4
2018-10-07T10:32:55.768Z,98.2
2018-10-07T10:33:55.695Z,98.4
2018-10-07T10:34:56.325Z,98.5
2018-10-07T10:35:56.229Z,97.6
2018-10-07T10:36:56.784Z,97.4
2018-10-07T10:37:57.027Z,97.8
2018-10-07T10:38:56.935Z,98.1
2018-10-07T10:39:57.199Z,97.6
2018-10-07T10:40:57.484Z,97.7
2018-10-07T10:41:57.404Z,97.6
2018-10-07T10:42:57.316Z,97.4
2018-10-07T10:43:57.225Z,97.6
2018-10-07T10:44:57.595Z,97.7
2018-10-07T10:45:57.525Z,97.5
2018-10-07T10:46:57.446Z,97.8
2018-10-07T10:47:57.525Z,97.9
2018-10-07T10:48:57.482Z,97.1
2018-10-07T10:49:57.410Z,97.1
2018-10-07T10:50:57.354Z,97.4
2018-10-07T10:51:57.269Z,97.4
2018-10-07T10:52:57.188Z,97.6
2018-10-07T10:54:01.197Z,97.9
2018-10-07T10:55:01.907Z,97.5
2018-10-07T10:56:02.213Z,97.4
2018-10-07T10:57:02.128Z,97.6
2018-10-07T10:58:02.066Z,97.9
2018-10-07T10:59:01.998Z,97.8
2018-10-07T11:00:01.946Z,97.1
2018-10-07T11:01:02.207Z,96.8
2018-10-07T11:02:02.355Z,96.9
2018-10-07T11:03:02.273Z,97.5
2018-10-07T11:04:02.192Z,97.2
2018-10-07T11:05:03.029Z,97.4
2018-10-07T11:06:02.933Z,97.2
2018-10-07T11:07:02.937Z,96.9
2018-10-07T11:08:02.846Z,97.2
2018-10-07T11:09:03.008Z,96.9
2018-10-07T11:10:02.971Z,96.7
2018-10-07T11:11:02.898Z,96.6
2018-10-07T11:12:02.806Z,97
2018-10-07T11:13:02.767Z,97.1
2018-10-07T11:14:02.928Z,97.2
2018-10-07T11:15:03.280Z,97.3
2018-10-07T11:16:03.209Z,97.2
2018-10-07T11:17:03.124Z,97
2018-10-07T11:18:03.060Z,97
2018-10-07T11:19:03.016Z,97.1
2018-10-07T11:20:02.941Z,97.4
2018-10-07T11:21:02.852Z,97.3
2018-10-07T11:22:02.764Z,97.4
2018-10-07T11:23:02.690Z,97.4
2018-10-07T11:24:02.607Z,97.3
2018-10-07T11:25:03.099Z,97.2
2018-10-07T11:54:58.644Z,96.6
2018-10-07T11:55:58.579Z,96.8
2018-10-07T11:56:58.501Z,96.5
2018-10-07T11:57:58.646Z,96.7
2018-10-07T11:58:58.589Z,96.3
2018-10-07T11:59:58.499Z,96.4
2018-10-07T12:00:58.425Z,96.7
2018-10-07T12:01:58.336Z,97
2018-10-07T12:02:58.278Z,97.2
2018-10-07T12:03:58.208Z,97.4
2018-10-07T12:04:58.566Z,97.6
2018-10-07T12:05:58.491Z,97.7
2018-10-07T12:06:58.401Z,97.7
2018-10-07T12:07:58.311Z,97.6
2018-10-07T12:08:58.248Z,97.6
2018-10-07T12:09:58.152Z,97.8
2018-10-07T12:10:58.059Z,97.9
2018-10-07T12:11:57.951Z,98
2018-10-07T12:12:57.869Z,97.9
2018-10-07T12:13:57.799Z,98.3
2018-10-07T12:14:58.208Z,97.7
2018-10-07T12:15:58.109Z,97.8
2018-10-07T12:16:58.062Z,98.3
2018-10-07T12:17:58.433Z,97.9
2018-10-07T12:18:58.366Z,98
2018-10-07T12:19:58.285Z,98
2018-10-07T12:20:58.198Z,98
2018-10-07T12:21:58.141Z,98
2018-10-07T12:22:58.036Z,98.1
2018-10-07T12:23:57.958Z,98.3
2018-10-07T12:24:58.541Z,98.2
2018-10-07T12:25:58.449Z,98.2
2018-10-07T12:26:58.377Z,98.3
2018-10-07T12:27:58.503Z,98.4
2018-10-07T12:28:58.821Z,98
2018-10-07T12:29:59.040Z,98
2018-10-07T12:30:59.166Z,98.4
2018-10-07T12:31:59.312Z,98.4
2018-10-07T12:32:59.237Z,98.5
2018-10-07T12:33:59.157Z,98.4
2018-10-07T12:34:59.738Z,98.3
2018-10-07T12:35:59.647Z,98.2
2018-10-07T12:36:59.564Z,98.2
2018-10-07T12:37:59.473Z,98.1
2018-10-07T12:38:59.405Z,98.2
2018-10-07T12:39:59.311Z,98.4
2018-10-07T12:40:59.244Z,98.4
2018-10-07T12:41:59.148Z,98.4
2018-10-07T12:42:59.072Z,98.8
2018-10-07T12:43:59.011Z,98.8
2018-10-07T12:44:59.404Z,99
2018-10-07T12:45:59.327Z,99
2018-10-07T12:46:59.252Z,98.9
2018-10-07T12:47:59.145Z,99
2018-10-07T12:48:59.071Z,99.2
2018-10-07T12:49:58.969Z,99.3
2018-10-07T12:50:59.338Z,99.3
2018-10-07T12:51:59.244Z,99
2018-10-07T12:52:59.143Z,98.8
2018-10-07T12:53:59.650Z,98.6
2018-10-07T12:55:00.682Z,98.6
2018-10-07T13:04:59.048Z,98.1
2018-10-07T13:05:58.972Z,98.4
2018-10-07T13:06:58.884Z,98.5
2018-10-07T13:07:58.797Z,98.3
2018-10-07T13:08:58.711Z,98.3
2018-10-07T13:09:59.080Z,98.4
2018-10-07T13:10:59.001Z,98.4
2018-10-07T13:12:01.944Z,98.6
2018-10-07T13:13:01.884Z,98.6
2018-10-07T13:14:01.809Z,98.7
2018-10-07T13:15:02.413Z,98.1
2018-10-07T13:35:00.148Z,99.3
2018-10-07T13:36:00.067Z,99.6
2018-10-07T13:36:59.972Z,99.7
2018-10-07T13:38:00.546Z,99.7
2018-10-07T13:39:00.483Z,99.9
2018-10-07T13:40:00.816Z,99.9
2018-10-07T13:41:01.278Z,99.9
2018-10-07T13:42:01.180Z,99.9
2018-10-07T13:43:01.142Z,99.9
2018-10-07T13:44:01.137Z,99.9
2018-10-07T13:45:01.510Z,99.9
2018-10-07T13:46:01.432Z,99.9
2018-10-07T13:47:01.346Z,99.9
2018-10-07T13:48:01.251Z,99.9
2018-10-07T13:49:10.403Z,99.9
2018-10-07T13:50:10.320Z,99.9
2018-10-07T13:51:10.233Z,99.9
2018-10-07T13:52:10.162Z,99.9
2018-10-07T13:53:10.157Z,99.9
2018-10-07T13:54:10.134Z,99.9
2018-10-07T13:55:10.511Z,99.9
2018-10-07T13:56:10.498Z,99.9
2018-10-07T13:57:11.493Z,99.9
2018-10-07T13:58:13.521Z,99.9
2018-10-07T13:59:15.155Z,99.9
2018-10-07T14:00:16.307Z,99.9
2018-10-07T14:01:16.837Z,99.9
2018-10-07T14:02:16.754Z,99.9
2018-10-07T14:03:16.678Z,99.9
2018-10-07T14:04:16.621Z,99.9
2018-10-07T14:05:17.041Z,99.9
2018-10-07T14:06:16.968Z,99.9
2018-10-07T14:07:16.888Z,99.9
2018-10-07T14:08:16.872Z,99.9
2018-10-07T14:09:17.047Z,99.9
2018-10-07T14:10:17.120Z,99.9
2018-10-07T14:11:17.084Z,99.9
2018-10-07T14:12:17.005Z,99.9
2018-10-07T14:13:17.239Z,99.9
2018-10-07T14:14:17.366Z,99.9
2018-10-07T14:15:17.775Z,99.9
2018-10-07T14:16:17.697Z,99.9
2018-10-07T14:17:17.622Z,99.9
2018-10-07T14:18:17.572Z,99.9
2018-10-07T14:19:17.512Z,99.9
2018-10-07T14:20:17.429Z,99.9
2018-10-07T14:21:17.348Z,99.9
2018-10-07T14:22:17.271Z,99.9
2018-10-07T14:23:17.210Z,99.9
2018-10-07T14:24:17.148Z,99.9
2018-10-07T14:25:17.559Z,99.9
2018-10-07T14:26:17.486Z,99.9
2018-10-07T14:27:17.417Z,99.9
2018-10-07T14:28:17.326Z,99.9
2018-10-07T14:29:17.468Z,99.9
2018-10-07T14:30:17.627Z,99.9
2018-10-07T14:31:17.566Z,99.9
2018-10-07T14:32:17.489Z,99.9
2018-10-07T14:33:17.421Z,99.9
2018-10-07T14:34:20.068Z,99.9
2018-10-07T14:35:20.458Z,99.9
2018-10-07T14:36:20.389Z,99.9
2018-10-07T14:37:20.315Z,99.9
2018-10-07T14:38:20.455Z,99.9
2018-10-07T14:39:20.995Z,99.9
2018-10-07T14:40:21.133Z,99.9
2018-10-07T14:41:21.079Z,99.9
2018-10-07T14:42:21.012Z,99.9
2018-10-07T14:43:20.942Z,99.9
2018-10-07T14:44:20.852Z,99.9
2018-10-07T14:45:21.953Z,99.9
2018-10-07T14:46:21.918Z,99.6
2018-10-07T14:47:21.846Z,99.5
2018-10-07T14:48:21.748Z,99.6
2018-10-07T14:49:22.355Z,99.4
2018-10-07T14:50:22.672Z,99.5
2018-10-07T14:51:22.600Z,99.6
2018-10-07T14:52:22.565Z,99.7
2018-10-07T14:53:22.495Z,99.8
2018-10-07T14:54:22.412Z,99.8
2018-10-07T14:55:22.780Z,99.9
2018-10-07T14:56:22.715Z,99.9
2018-10-07T14:57:22.636Z,99.9
2018-10-07T14:58:22.564Z,99.9
2018-10-07T14:59:22.481Z,99.8
2018-10-07T15:00:22.401Z,99.6
2018-10-07T15:01:22.336Z,99.7
2018-10-07T15:02:22.286Z,99.6
2018-10-07T15:03:22.195Z,99.6
2018-10-07T15:04:22.107Z,99.6
2018-10-07T15:05:22.527Z,99.9
2018-10-07T15:06:22.458Z,99.7
2018-10-07T15:07:22.404Z,99.6
2018-10-07T15:08:22.998Z,99.5
2018-10-07T15:09:23.034Z,99.1
2018-10-07T15:10:23.020Z,99.1
2018-10-07T15:11:22.942Z,99
2018-10-07T15:12:23.555Z,99.1
2018-10-07T15:13:23.464Z,99.1
2018-10-07T15:14:23.379Z,99.2
2018-10-07T15:15:23.763Z,99.2
2018-10-07T15:16:23.684Z,99.2
2018-10-07T15:17:23.610Z,99.5
2018-10-07T15:18:23.562Z,99.6
2018-10-07T15:19:23.701Z,99.6
2018-10-07T15:20:23.621Z,99.6
2018-10-07T15:21:23.535Z,99.2
2018-10-07T15:22:23.456Z,99
2018-10-07T15:23:23.378Z,99.1
2018-10-07T15:24:23.310Z,99.3
2018-10-07T15:25:24.367Z,99.4
2018-10-07T15:35:22.875Z,99.1
2018-10-07T15:36:22.793Z,99.3
2018-10-07T15:37:22.697Z,99.4
2018-10-07T15:38:22.609Z,99.4
2018-10-07T15:39:22.539Z,99.4
2018-10-07T15:40:22.490Z,99.5
2018-10-07T15:41:22.393Z,99.5
2018-10-07T15:42:22.310Z,99.6
2018-10-07T15:43:22.223Z,99.5
2018-10-07T15:44:22.121Z,99.6
2018-10-07T15:45:22.471Z,99.6
2018-10-07T15:46:22.404Z,99.6
2018-10-07T15:47:22.975Z,99.8
2018-10-07T15:48:22.881Z,99.9
2018-10-07T15:49:22.795Z,99.9
2018-10-07T15:50:22.715Z,99.9
2018-10-07T15:51:22.672Z,99.9
2018-10-07T15:52:22.594Z,99.9
2018-10-07T15:53:22.500Z,99.9
2018-10-07T15:54:22.639Z,99.9
2018-10-07T15:55:23.057Z,99.9
2018-10-07T15:56:23.199Z,99.9
2018-10-07T15:57:23.157Z,99.9
2018-10-07T15:58:23.058Z,99.9
2018-10-07T15:59:22.992Z,99.9
2018-10-07T16:00:22.912Z,99.9
2018-10-07T16:01:22.814Z,99.9
2018-10-07T16:02:22.760Z,99.9
2018-10-07T16:03:22.670Z,99.9
2018-10-07T16:04:22.571Z,99.9
2018-10-07T16:05:22.970Z,99.9
2018-10-07T16:06:22.895Z,99.9
2018-10-07T16:07:22.825Z,99.9
2018-10-07T16:08:22.778Z,99.9
2018-10-07T16:09:22.738Z,99.9
2018-10-07T16:10:22.676Z,99.9
2018-10-07T16:11:22.609Z,99.9
2018-10-07T16:12:22.522Z,99.9
2018-10-07T16:13:22.455Z,99.9
2018-10-07T16:14:22.389Z,99.9
2018-10-07T16:15:22.749Z,99.9
2018-10-07T16:16:22.893Z,99.9
2018-10-07T16:17:22.802Z,99.9
2018-10-07T16:18:23.040Z,99.9
2018-10-07T16:19:23.065Z,99.9
2018-10-07T16:20:22.970Z,99.9
2018-10-07T16:21:22.907Z,99.9
2018-10-07T16:22:22.811Z,99.9
2018-10-07T16:23:22.722Z,99.9
2018-10-07T16:24:22.943Z,99.9
2018-10-07T16:35:24.138Z,99.7
2018-10-07T16:36:24.049Z,99.9
2018-10-07T16:37:23.970Z,99.9
2018-10-07T16:38:23.877Z,99.9
2018-10-07T16:39:23.790Z,99.9
2018-10-07T16:40:23.770Z,99.9
2018-10-07T16:41:23.753Z,99.9
2018-10-07T16:42:23.677Z,99.9
2018-10-07T16:43:23.620Z,99.9
2018-10-07T16:44:23.572Z,99.9
2018-10-07T16:55:21.898Z,99.8
2018-10-07T16:56:21.841Z,99.9
2018-10-07T16:57:21.763Z,99.9
2018-10-07T16:58:21.664Z,99.9
2018-10-07T16:59:21.611Z,99.9
2018-10-07T17:00:21.534Z,99.9
2018-10-07T17:01:21.468Z,99.9
2018-10-07T17:02:21.428Z,99.9
2018-10-07T17:03:21.353Z,99.9
2018-10-07T17:04:21.284Z,99.9